sensor_id;sensor_type;location;lat;lon;timestamp;P1;durP1;ratioP1;P2;durP2;ratioP2
54865;SDS011;40754;52.094;4.328;2023-02-23T00:01:40;83.45;;;39.72;;
54865;SDS011;40754;52.094;4.328;2023-02-23T00:04:06;80.57;;;39.58;;
54865;SDS011;40754;52.094;4.328;2023-02-23T00:06:33;92.18;;;41.33;;
54865;SDS011;40754;52.094;4.328;2023-02-23T00:09:00;79.15;;;38.47;;
54865;SDS011;40754;52.094;4.328;2023-02-23T00:11:48;83.35;;;38.60;;
54865;SDS011;40754;52.094;4.328;2023-02-23T00:14:15;77.80;;;39.70;;
54865;SDS011;40754;52.094;4.328;2023-02-23T00:16:41;82.97;;;37.75;;
54865;SDS011;40754;52.094;4.328;2023-02-23T00:19:09;86.72;;;39.70;;
54865;SDS011;40754;52.094;4.328;2023-02-23T00:21:38;79.80;;;38.10;;
54865;SDS011;40754;52.094;4.328;2023-02-23T00:24:05;91.47;;;40.58;;
54865;SDS011;40754;52.094;4.328;2023-02-23T00:26:33;83.13;;;38.65;;
54865;SDS011;40754;52.094;4.328;2023-02-23T00:29:00;77.53;;;39.35;;
54865;SDS011;40754;52.094;4.328;2023-02-23T00:31:27;78.47;;;38.10;;
54865;SDS011;40754;52.094;4.328;2023-02-23T00:33:54;80.50;;;38.50;;
54865;SDS011;40754;52.094;4.328;2023-02-23T00:36:22;83.43;;;39.83;;
54865;SDS011;40754;52.094;4.328;2023-02-23T00:38:53;79.50;;;38.60;;
54865;SDS011;40754;52.094;4.328;2023-02-23T00:41:19;84.18;;;40.05;;
54865;SDS011;40754;52.094;4.328;2023-02-23T00:43:52;82.93;;;38.90;;
54865;SDS011;40754;52.094;4.328;2023-02-23T00:46:19;80.88;;;37.92;;
54865;SDS011;40754;52.094;4.328;2023-02-23T00:48:47;82.97;;;38.45;;
54865;SDS011;40754;52.094;4.328;2023-02-23T00:51:14;80.15;;;36.92;;
54865;SDS011;40754;52.094;4.328;2023-02-23T00:53:40;75.82;;;36.83;;
54865;SDS011;40754;52.094;4.328;2023-02-23T00:56:07;79.30;;;38.17;;
54865;SDS011;40754;52.094;4.328;2023-02-23T00:58:34;81.43;;;39.10;;
54865;SDS011;40754;52.094;4.328;2023-02-23T01:01:00;82.05;;;38.25;;
54865;SDS011;40754;52.094;4.328;2023-02-23T01:03:29;88.00;;;38.20;;
54865;SDS011;40754;52.094;4.328;2023-02-23T01:05:58;82.25;;;39.08;;
54865;SDS011;40754;52.094;4.328;2023-02-23T01:10:54;80.47;;;37.97;;
54865;SDS011;40754;52.094;4.328;2023-02-23T01:13:19;85.25;;;38.10;;
54865;SDS011;40754;52.094;4.328;2023-02-23T01:15:46;87.53;;;40.38;;
54865;SDS011;40754;52.094;4.328;2023-02-23T01:18:17;91.15;;;39.75;;
54865;SDS011;40754;52.094;4.328;2023-02-23T01:20:44;90.60;;;39.53;;
54865;SDS011;40754;52.094;4.328;2023-02-23T01:23:14;89.97;;;39.63;;
54865;SDS011;40754;52.094;4.328;2023-02-23T01:25:41;86.63;;;40.63;;
54865;SDS011;40754;52.094;4.328;2023-02-23T01:28:11;101.00;;;42.17;;
54865;SDS011;40754;52.094;4.328;2023-02-23T01:30:37;92.25;;;40.72;;
54865;SDS011;40754;52.094;4.328;2023-02-23T01:33:03;91.45;;;40.17;;
54865;SDS011;40754;52.094;4.328;2023-02-23T01:35:30;91.95;;;41.25;;
54865;SDS011;40754;52.094;4.328;2023-02-23T01:38:21;97.22;;;41.08;;
54865;SDS011;40754;52.094;4.328;2023-02-23T01:40:46;90.25;;;42.05;;
54865;SDS011;40754;52.094;4.328;2023-02-23T01:43:13;97.97;;;41.20;;
54865;SDS011;40754;52.094;4.328;2023-02-23T01:45:49;93.57;;;40.28;;
54865;SDS011;40754;52.094;4.328;2023-02-23T01:48:19;96.50;;;43.15;;
54865;SDS011;40754;52.094;4.328;2023-02-23T01:51:00;98.38;;;41.05;;
54865;SDS011;40754;52.094;4.328;2023-02-23T01:53:36;96.07;;;40.95;;
54865;SDS011;40754;52.094;4.328;2023-02-23T01:56:17;98.55;;;42.92;;
54865;SDS011;40754;52.094;4.328;2023-02-23T01:58:46;95.88;;;41.72;;
54865;SDS011;40754;52.094;4.328;2023-02-23T02:01:16;96.82;;;39.92;;
54865;SDS011;40754;52.094;4.328;2023-02-23T02:03:57;95.75;;;41.28;;
54865;SDS011;40754;52.094;4.328;2023-02-23T02:06:29;92.03;;;41.58;;
54865;SDS011;40754;52.094;4.328;2023-02-23T02:09:00;98.30;;;41.60;;
54865;SDS011;40754;52.094;4.328;2023-02-23T02:11:32;97.88;;;41.67;;
54865;SDS011;40754;52.094;4.328;2023-02-23T02:14:04;101.72;;;40.85;;
54865;SDS011;40754;52.094;4.328;2023-02-23T02:16:46;97.13;;;41.65;;
54865;SDS011;40754;52.094;4.328;2023-02-23T02:33:28;92.55;;;41.67;;
54865;SDS011;40754;52.094;4.328;2023-02-23T02:45:05;86.97;;;38.95;;
54865;SDS011;40754;52.094;4.328;2023-02-23T02:47:37;89.53;;;39.33;;
54865;SDS011;40754;52.094;4.328;2023-02-23T02:50:14;87.22;;;39.33;;
54865;SDS011;40754;52.094;4.328;2023-02-23T02:53:08;90.00;;;39.38;;
54865;SDS011;40754;52.094;4.328;2023-02-23T02:55:35;84.95;;;39.40;;
54865;SDS011;40754;52.094;4.328;2023-02-23T02:58:05;97.60;;;41.05;;
54865;SDS011;40754;52.094;4.328;2023-02-23T03:00:39;89.10;;;39.55;;
54865;SDS011;40754;52.094;4.328;2023-02-23T03:06:31;87.78;;;38.85;;
54865;SDS011;40754;52.094;4.328;2023-02-23T03:24:43;84.80;;;37.85;;
54865;SDS011;40754;52.094;4.328;2023-02-23T03:27:53;81.05;;;35.83;;
54865;SDS011;40754;52.094;4.328;2023-02-23T03:33:52;87.72;;;38.13;;
54865;SDS011;40754;52.094;4.328;2023-02-23T03:36:46;89.50;;;38.53;;
54865;SDS011;40754;52.094;4.328;2023-02-23T03:39:34;79.00;;;37.28;;
54865;SDS011;40754;52.094;4.328;2023-02-23T03:42:25;90.63;;;37.47;;
54865;SDS011;40754;52.094;4.328;2023-02-23T03:45:13;91.20;;;38.08;;
54865;SDS011;40754;52.094;4.328;2023-02-23T03:48:01;81.93;;;36.80;;
54865;SDS011;40754;52.094;4.328;2023-02-23T03:50:52;84.75;;;37.38;;
54865;SDS011;40754;52.094;4.328;2023-02-23T03:53:46;85.97;;;37.08;;
54865;SDS011;40754;52.094;4.328;2023-02-23T03:56:40;90.88;;;37.95;;
54865;SDS011;40754;52.094;4.328;2023-02-23T03:59:29;95.38;;;37.58;;
54865;SDS011;40754;52.094;4.328;2023-02-23T04:02:15;93.47;;;37.38;;
54865;SDS011;40754;52.094;4.328;2023-02-23T04:05:01;94.05;;;39.20;;
54865;SDS011;40754;52.094;4.328;2023-02-23T04:07:49;93.40;;;37.63;;
54865;SDS011;40754;52.094;4.328;2023-02-23T04:10:35;87.70;;;37.25;;
54865;SDS011;40754;52.094;4.328;2023-02-23T04:13:24;102.78;;;39.13;;
54865;SDS011;40754;52.094;4.328;2023-02-23T04:15:53;94.38;;;39.05;;
54865;SDS011;40754;52.094;4.328;2023-02-23T04:18:45;91.45;;;38.55;;
54865;SDS011;40754;52.094;4.328;2023-02-23T04:21:11;96.30;;;38.53;;
54865;SDS011;40754;52.094;4.328;2023-02-23T04:23:37;88.70;;;37.67;;
54865;SDS011;40754;52.094;4.328;2023-02-23T04:26:04;93.45;;;38.58;;
54865;SDS011;40754;52.094;4.328;2023-02-23T04:28:30;92.75;;;38.72;;
54865;SDS011;40754;52.094;4.328;2023-02-23T04:30:56;90.30;;;37.85;;
54865;SDS011;40754;52.094;4.328;2023-02-23T04:33:23;91.78;;;37.85;;
54865;SDS011;40754;52.094;4.328;2023-02-23T04:35:50;102.13;;;39.55;;
54865;SDS011;40754;52.094;4.328;2023-02-23T04:38:19;85.78;;;35.60;;
54865;SDS011;40754;52.094;4.328;2023-02-23T04:40:45;88.38;;;36.00;;
54865;SDS011;40754;52.094;4.328;2023-02-23T04:43:14;87.20;;;36.85;;
54865;SDS011;40754;52.094;4.328;2023-02-23T04:45:43;84.35;;;35.85;;
54865;SDS011;40754;52.094;4.328;2023-02-23T04:48:09;88.97;;;36.28;;
54865;SDS011;40754;52.094;4.328;2023-02-23T04:50:34;87.35;;;36.17;;
54865;SDS011;40754;52.094;4.328;2023-02-23T04:53:00;94.13;;;36.45;;
54865;SDS011;40754;52.094;4.328;2023-02-23T04:55:25;97.07;;;36.55;;
54865;SDS011;40754;52.094;4.328;2023-02-23T04:57:52;87.20;;;37.05;;
54865;SDS011;40754;52.094;4.328;2023-02-23T05:00:23;85.88;;;36.38;;
54865;SDS011;40754;52.094;4.328;2023-02-23T05:02:49;93.90;;;36.92;;
54865;SDS011;40754;52.094;4.328;2023-02-23T05:05:15;82.15;;;34.97;;
54865;SDS011;40754;52.094;4.328;2023-02-23T05:07:40;87.22;;;36.20;;
54865;SDS011;40754;52.094;4.328;2023-02-23T05:10:07;89.13;;;35.08;;
54865;SDS011;40754;52.094;4.328;2023-02-23T05:12:33;88.28;;;36.38;;
54865;SDS011;40754;52.094;4.328;2023-02-23T05:14:59;90.68;;;35.58;;
54865;SDS011;40754;52.094;4.328;2023-02-23T05:17:25;82.57;;;36.63;;
54865;SDS011;40754;52.094;4.328;2023-02-23T05:19:50;98.57;;;36.80;;
54865;SDS011;40754;52.094;4.328;2023-02-23T05:22:16;98.47;;;37.33;;
54865;SDS011;40754;52.094;4.328;2023-02-23T05:24:42;96.93;;;36.15;;
54865;SDS011;40754;52.094;4.328;2023-02-23T05:27:08;104.10;;;38.85;;
54865;SDS011;40754;52.094;4.328;2023-02-23T05:29:34;103.05;;;37.55;;
54865;SDS011;40754;52.094;4.328;2023-02-23T05:31:59;93.25;;;37.47;;
54865;SDS011;40754;52.094;4.328;2023-02-23T05:34:25;97.30;;;38.00;;
54865;SDS011;40754;52.094;4.328;2023-02-23T05:36:51;90.90;;;35.97;;
54865;SDS011;40754;52.094;4.328;2023-02-23T05:39:18;85.57;;;34.85;;
54865;SDS011;40754;52.094;4.328;2023-02-23T05:41:44;87.82;;;35.58;;
54865;SDS011;40754;52.094;4.328;2023-02-23T05:44:09;97.70;;;37.72;;
54865;SDS011;40754;52.094;4.328;2023-02-23T05:46:35;88.45;;;34.83;;
54865;SDS011;40754;52.094;4.328;2023-02-23T05:49:03;92.75;;;37.47;;
54865;SDS011;40754;52.094;4.328;2023-02-23T05:51:29;98.97;;;37.45;;
54865;SDS011;40754;52.094;4.328;2023-02-23T05:53:56;87.72;;;35.45;;
54865;SDS011;40754;52.094;4.328;2023-02-23T05:56:22;91.63;;;37.25;;
54865;SDS011;40754;52.094;4.328;2023-02-23T05:58:50;91.95;;;35.60;;
54865;SDS011;40754;52.094;4.328;2023-02-23T06:01:17;94.18;;;36.80;;
54865;SDS011;40754;52.094;4.328;2023-02-23T06:03:43;96.55;;;37.25;;
54865;SDS011;40754;52.094;4.328;2023-02-23T06:06:12;91.82;;;36.05;;
54865;SDS011;40754;52.094;4.328;2023-02-23T06:08:38;93.28;;;37.42;;
54865;SDS011;40754;52.094;4.328;2023-02-23T06:11:04;97.70;;;36.28;;
54865;SDS011;40754;52.094;4.328;2023-02-23T06:13:30;97.10;;;35.78;;
54865;SDS011;40754;52.094;4.328;2023-02-23T06:15:56;91.85;;;36.90;;
54865;SDS011;40754;52.094;4.328;2023-02-23T06:18:23;104.78;;;37.67;;
54865;SDS011;40754;52.094;4.328;2023-02-23T06:20:52;96.20;;;36.08;;
54865;SDS011;40754;52.094;4.328;2023-02-23T06:23:18;93.00;;;37.33;;
54865;SDS011;40754;52.094;4.328;2023-02-23T06:25:44;93.10;;;36.05;;
54865;SDS011;40754;52.094;4.328;2023-02-23T06:28:11;95.55;;;36.58;;
54865;SDS011;40754;52.094;4.328;2023-02-23T06:30:37;92.90;;;35.70;;
54865;SDS011;40754;52.094;4.328;2023-02-23T06:33:03;95.70;;;36.88;;
54865;SDS011;40754;52.094;4.328;2023-02-23T06:35:36;92.03;;;36.53;;
54865;SDS011;40754;52.094;4.328;2023-02-23T06:38:03;96.93;;;37.15;;
54865;SDS011;40754;52.094;4.328;2023-02-23T06:40:32;105.30;;;38.20;;
54865;SDS011;40754;52.094;4.328;2023-02-23T06:43:11;102.88;;;37.65;;
54865;SDS011;40754;52.094;4.328;2023-02-23T06:45:37;95.88;;;36.10;;
54865;SDS011;40754;52.094;4.328;2023-02-23T06:48:09;102.85;;;38.20;;
54865;SDS011;40754;52.094;4.328;2023-02-23T06:50:34;90.15;;;35.05;;
54865;SDS011;40754;52.094;4.328;2023-02-23T06:53:00;99.65;;;36.97;;
54865;SDS011;40754;52.094;4.328;2023-02-23T06:55:26;97.20;;;35.03;;
54865;SDS011;40754;52.094;4.328;2023-02-23T06:57:52;97.82;;;33.53;;
54865;SDS011;40754;52.094;4.328;2023-02-23T07:00:18;85.13;;;33.20;;
54865;SDS011;40754;52.094;4.328;2023-02-23T07:02:45;77.18;;;31.98;;
54865;SDS011;40754;52.094;4.328;2023-02-23T07:05:11;93.93;;;34.72;;
54865;SDS011;40754;52.094;4.328;2023-02-23T07:07:37;83.15;;;31.75;;
54865;SDS011;40754;52.094;4.328;2023-02-23T07:10:04;83.22;;;31.40;;
54865;SDS011;40754;52.094;4.328;2023-02-23T07:12:30;70.72;;;29.35;;
54865;SDS011;40754;52.094;4.328;2023-02-23T07:14:56;65.95;;;27.02;;
54865;SDS011;40754;52.094;4.328;2023-02-23T07:17:22;61.22;;;24.02;;
54865;SDS011;40754;52.094;4.328;2023-02-23T07:19:47;64.28;;;26.00;;
54865;SDS011;40754;52.094;4.328;2023-02-23T07:22:14;58.63;;;25.30;;
54865;SDS011;40754;52.094;4.328;2023-02-23T07:24:41;55.13;;;24.15;;
54865;SDS011;40754;52.094;4.328;2023-02-23T07:27:06;55.72;;;22.83;;
54865;SDS011;40754;52.094;4.328;2023-02-23T07:29:32;45.63;;;20.08;;
54865;SDS011;40754;52.094;4.328;2023-02-23T07:31:58;45.92;;;19.95;;
54865;SDS011;40754;52.094;4.328;2023-02-23T07:34:24;44.92;;;19.33;;
54865;SDS011;40754;52.094;4.328;2023-02-23T07:36:53;45.00;;;18.50;;
54865;SDS011;40754;52.094;4.328;2023-02-23T07:39:18;40.38;;;16.80;;
54865;SDS011;40754;52.094;4.328;2023-02-23T07:41:45;35.78;;;16.00;;
54865;SDS011;40754;52.094;4.328;2023-02-23T07:44:11;37.20;;;17.00;;
54865;SDS011;40754;52.094;4.328;2023-02-23T07:46:36;39.00;;;16.40;;
54865;SDS011;40754;52.094;4.328;2023-02-23T07:49:02;39.30;;;15.48;;
54865;SDS011;40754;52.094;4.328;2023-02-23T07:51:27;34.67;;;15.73;;
54865;SDS011;40754;52.094;4.328;2023-02-23T07:53:53;32.45;;;15.95;;
54865;SDS011;40754;52.094;4.328;2023-02-23T07:56:19;33.42;;;14.85;;
54865;SDS011;40754;52.094;4.328;2023-02-23T07:58:44;29.90;;;14.18;;
54865;SDS011;40754;52.094;4.328;2023-02-23T08:01:10;32.45;;;13.85;;
54865;SDS011;40754;52.094;4.328;2023-02-23T08:03:37;34.40;;;14.32;;
54865;SDS011;40754;52.094;4.328;2023-02-23T08:06:03;24.00;;;13.38;;
54865;SDS011;40754;52.094;4.328;2023-02-23T08:08:29;30.17;;;12.82;;
54865;SDS011;40754;52.094;4.328;2023-02-23T08:10:58;30.48;;;12.38;;
54865;SDS011;40754;52.094;4.328;2023-02-23T08:13:24;26.55;;;12.15;;
54865;SDS011;40754;52.094;4.328;2023-02-23T08:15:50;24.42;;;11.88;;
54865;SDS011;40754;52.094;4.328;2023-02-23T08:18:15;19.67;;;11.15;;
54865;SDS011;40754;52.094;4.328;2023-02-23T08:20:42;23.73;;;11.52;;
54865;SDS011;40754;52.094;4.328;2023-02-23T08:23:08;23.30;;;11.65;;
54865;SDS011;40754;52.094;4.328;2023-02-23T08:25:34;23.40;;;10.70;;
54865;SDS011;40754;52.094;4.328;2023-02-23T08:28:00;18.60;;;10.60;;
54865;SDS011;40754;52.094;4.328;2023-02-23T08:30:28;20.50;;;11.25;;
54865;SDS011;40754;52.094;4.328;2023-02-23T08:32:58;18.35;;;10.80;;
54865;SDS011;40754;52.094;4.328;2023-02-23T08:35:27;19.45;;;10.43;;
54865;SDS011;40754;52.094;4.328;2023-02-23T08:37:55;21.10;;;10.77;;
54865;SDS011;40754;52.094;4.328;2023-02-23T08:40:27;17.88;;;10.23;;
54865;SDS011;40754;52.094;4.328;2023-02-23T08:42:53;19.65;;;11.52;;
54865;SDS011;40754;52.094;4.328;2023-02-23T08:45:19;19.55;;;11.07;;
54865;SDS011;40754;52.094;4.328;2023-02-23T08:47:44;17.42;;;10.65;;
54865;SDS011;40754;52.094;4.328;2023-02-23T08:50:13;19.75;;;10.68;;
54865;SDS011;40754;52.094;4.328;2023-02-23T08:52:39;18.85;;;10.07;;
54865;SDS011;40754;52.094;4.328;2023-02-23T08:55:06;19.52;;;10.93;;
54865;SDS011;40754;52.094;4.328;2023-02-23T08:57:35;24.17;;;11.15;;
54865;SDS011;40754;52.094;4.328;2023-02-23T09:00:01;20.45;;;12.40;;
54865;SDS011;40754;52.094;4.328;2023-02-23T09:02:28;19.05;;;10.68;;
54865;SDS011;40754;52.094;4.328;2023-02-23T09:04:59;16.15;;;10.45;;
54865;SDS011;40754;52.094;4.328;2023-02-23T09:07:26;19.48;;;11.02;;
54865;SDS011;40754;52.094;4.328;2023-02-23T09:09:55;22.67;;;11.32;;
54865;SDS011;40754;52.094;4.328;2023-02-23T09:12:21;22.90;;;11.90;;
54865;SDS011;40754;52.094;4.328;2023-02-23T09:14:47;17.67;;;8.68;;
54865;SDS011;40754;52.094;4.328;2023-02-23T09:17:13;18.83;;;10.45;;
54865;SDS011;40754;52.094;4.328;2023-02-23T09:19:39;18.73;;;10.02;;
54865;SDS011;40754;52.094;4.328;2023-02-23T09:22:06;15.50;;;9.48;;
54865;SDS011;40754;52.094;4.328;2023-02-23T09:24:45;16.30;;;9.10;;
54865;SDS011;40754;52.094;4.328;2023-02-23T09:27:10;15.80;;;7.97;;
54865;SDS011;40754;52.094;4.328;2023-02-23T09:29:37;15.57;;;9.75;;
54865;SDS011;40754;52.094;4.328;2023-02-23T09:32:06;21.23;;;9.68;;
54865;SDS011;40754;52.094;4.328;2023-02-23T09:34:32;16.80;;;9.68;;
54865;SDS011;40754;52.094;4.328;2023-02-23T09:37:01;17.45;;;9.50;;
54865;SDS011;40754;52.094;4.328;2023-02-23T09:39:27;17.80;;;9.93;;
54865;SDS011;40754;52.094;4.328;2023-02-23T09:45:00;20.05;;;10.30;;
54865;SDS011;40754;52.094;4.328;2023-02-23T09:50:25;15.60;;;9.93;;
54865;SDS011;40754;52.094;4.328;2023-02-23T09:52:53;20.25;;;10.80;;
54865;SDS011;40754;52.094;4.328;2023-02-23T09:55:31;20.15;;;11.05;;
54865;SDS011;40754;52.094;4.328;2023-02-23T09:58:01;19.55;;;10.13;;
54865;SDS011;40754;52.094;4.328;2023-02-23T10:00:36;21.63;;;11.43;;
54865;SDS011;40754;52.094;4.328;2023-02-23T10:05:58;18.20;;;10.50;;
54865;SDS011;40754;52.094;4.328;2023-02-23T10:11:13;24.15;;;11.20;;
54865;SDS011;40754;52.094;4.328;2023-02-23T10:16:37;23.38;;;12.13;;
54865;SDS011;40754;52.094;4.328;2023-02-23T10:21:39;24.55;;;12.82;;
54865;SDS011;40754;52.094;4.328;2023-02-23T10:24:11;24.80;;;12.30;;
54865;SDS011;40754;52.094;4.328;2023-02-23T10:26:49;28.55;;;13.02;;
54865;SDS011;40754;52.094;4.328;2023-02-23T10:31:53;26.83;;;12.37;;
54865;SDS011;40754;52.094;4.328;2023-02-23T10:34:21;29.85;;;13.93;;
54865;SDS011;40754;52.094;4.328;2023-02-23T10:39:26;27.45;;;13.75;;
54865;SDS011;40754;52.094;4.328;2023-02-23T10:41:53;24.08;;;13.68;;
54865;SDS011;40754;52.094;4.328;2023-02-23T10:44:25;32.75;;;15.18;;
54865;SDS011;40754;52.094;4.328;2023-02-23T10:46:53;32.83;;;14.63;;
54865;SDS011;40754;52.094;4.328;2023-02-23T10:49:39;29.65;;;14.30;;
54865;SDS011;40754;52.094;4.328;2023-02-23T10:52:11;30.27;;;15.50;;
54865;SDS011;40754;52.094;4.328;2023-02-23T10:54:44;31.98;;;15.43;;
54865;SDS011;40754;52.094;4.328;2023-02-23T10:57:21;30.27;;;14.45;;
54865;SDS011;40754;52.094;4.328;2023-02-23T11:00:32;28.10;;;14.25;;
54865;SDS011;40754;52.094;4.328;2023-02-23T11:02:45;32.72;;;14.90;;
54865;SDS011;40754;52.094;4.328;2023-02-23T11:10:53;36.97;;;16.27;;
54865;SDS011;40754;52.094;4.328;2023-02-23T11:13:46;34.47;;;16.75;;
54865;SDS011;40754;52.094;4.328;2023-02-23T11:16:18;43.33;;;18.52;;
54865;SDS011;40754;52.094;4.328;2023-02-23T11:18:55;37.45;;;18.33;;
54865;SDS011;40754;52.094;4.328;2023-02-23T11:24:17;42.40;;;19.45;;
54865;SDS011;40754;52.094;4.328;2023-02-23T11:26:54;41.08;;;19.38;;
54865;SDS011;40754;52.094;4.328;2023-02-23T11:29:38;45.85;;;20.48;;
54865;SDS011;40754;52.094;4.328;2023-02-23T11:32:06;46.85;;;20.45;;
54865;SDS011;40754;52.094;4.328;2023-02-23T11:34:42;50.92;;;23.48;;
54865;SDS011;40754;52.094;4.328;2023-02-23T11:42:22;61.08;;;25.23;;
54865;SDS011;40754;52.094;4.328;2023-02-23T11:47:30;61.35;;;27.42;;
54865;SDS011;40754;52.094;4.328;2023-02-23T11:49:59;60.80;;;26.70;;
54865;SDS011;40754;52.094;4.328;2023-02-23T11:52:26;60.63;;;28.63;;
54865;SDS011;40754;52.094;4.328;2023-02-23T11:54:59;59.88;;;28.75;;
54865;SDS011;40754;52.094;4.328;2023-02-23T11:57:31;61.78;;;27.48;;
54865;SDS011;40754;52.094;4.328;2023-02-23T11:59:59;61.20;;;28.35;;
54865;SDS011;40754;52.094;4.328;2023-02-23T12:02:43;65.90;;;29.38;;
54865;SDS011;40754;52.094;4.328;2023-02-23T12:05:16;62.65;;;29.17;;
54865;SDS011;40754;52.094;4.328;2023-02-23T12:07:45;55.85;;;28.15;;
54865;SDS011;40754;52.094;4.328;2023-02-23T12:10:25;65.68;;;30.73;;
54865;SDS011;40754;52.094;4.328;2023-02-23T12:18:14;69.72;;;29.45;;
54865;SDS011;40754;52.094;4.328;2023-02-23T12:20:57;62.53;;;29.77;;
54865;SDS011;40754;52.094;4.328;2023-02-23T12:23:28;57.78;;;29.38;;
54865;SDS011;40754;52.094;4.328;2023-02-23T12:25:57;67.13;;;29.58;;
54865;SDS011;40754;52.094;4.328;2023-02-23T12:28:44;64.45;;;29.38;;
54865;SDS011;40754;52.094;4.328;2023-02-23T12:36:57;58.83;;;28.77;;
54865;SDS011;40754;52.094;4.328;2023-02-23T12:42:05;53.95;;;25.83;;
54865;SDS011;40754;52.094;4.328;2023-02-23T12:44:54;60.22;;;24.85;;
54865;SDS011;40754;52.094;4.328;2023-02-23T12:47:29;40.25;;;20.95;;
54865;SDS011;40754;52.094;4.328;2023-02-23T12:50:08;47.25;;;21.65;;
54865;SDS011;40754;52.094;4.328;2023-02-23T12:52:45;47.63;;;23.30;;
54865;SDS011;40754;52.094;4.328;2023-02-23T13:01:16;39.60;;;19.92;;
54865;SDS011;40754;52.094;4.328;2023-02-23T13:23:35;40.97;;;18.35;;
54865;SDS011;40754;52.094;4.328;2023-02-23T13:31:56;41.78;;;18.95;;
54865;SDS011;40754;52.094;4.328;2023-02-23T13:34:28;42.00;;;18.98;;
54865;SDS011;40754;52.094;4.328;2023-02-23T13:36:57;42.42;;;18.55;;
54865;SDS011;40754;52.094;4.328;2023-02-23T13:39:29;39.35;;;18.17;;
54865;SDS011;40754;52.094;4.328;2023-02-23T13:42:19;38.67;;;17.70;;
54865;SDS011;40754;52.094;4.328;2023-02-23T13:51:16;29.00;;;9.73;;
54865;SDS011;40754;52.094;4.328;2023-02-23T13:53:27;32.65;;;9.45;;
54865;SDS011;40754;52.094;4.328;2023-02-23T13:55:59;28.75;;;9.00;;
54865;SDS011;40754;52.094;4.328;2023-02-23T13:58:30;24.90;;;8.68;;
54865;SDS011;40754;52.094;4.328;2023-02-23T14:03:52;33.30;;;9.43;;
54865;SDS011;40754;52.094;4.328;2023-02-23T14:06:21;26.13;;;8.85;;
54865;SDS011;40754;52.094;4.328;2023-02-23T14:08:50;31.05;;;10.25;;
54865;SDS011;40754;52.094;4.328;2023-02-23T14:11:28;25.90;;;8.25;;
54865;SDS011;40754;52.094;4.328;2023-02-23T14:14:13;24.15;;;5.53;;
54865;SDS011;40754;52.094;4.328;2023-02-23T14:19:44;19.67;;;4.85;;
54865;SDS011;40754;52.094;4.328;2023-02-23T14:22:35;23.13;;;4.40;;
54865;SDS011;40754;52.094;4.328;2023-02-23T14:27:56;27.42;;;4.38;;
54865;SDS011;40754;52.094;4.328;2023-02-23T14:30:26;30.85;;;5.07;;
54865;SDS011;40754;52.094;4.328;2023-02-23T14:32:53;25.38;;;3.97;;
54865;SDS011;40754;52.094;4.328;2023-02-23T14:35:36;20.77;;;3.90;;
54865;SDS011;40754;52.094;4.328;2023-02-23T14:40:39;25.57;;;4.83;;
54865;SDS011;40754;52.094;4.328;2023-02-23T14:48:56;33.53;;;5.25;;
54865;SDS011;40754;52.094;4.328;2023-02-23T14:51:32;42.25;;;6.20;;
54865;SDS011;40754;52.094;4.328;2023-02-23T14:54:02;43.72;;;6.30;;
54865;SDS011;40754;52.094;4.328;2023-02-23T14:56:43;45.95;;;6.50;;
54865;SDS011;40754;52.094;4.328;2023-02-23T14:59:14;42.28;;;5.53;;
54865;SDS011;40754;52.094;4.328;2023-02-23T15:01:45;37.92;;;7.85;;
54865;SDS011;40754;52.094;4.328;2023-02-23T15:04:18;51.42;;;7.75;;
54865;SDS011;40754;52.094;4.328;2023-02-23T15:06:48;53.58;;;7.75;;
54865;SDS011;40754;52.094;4.328;2023-02-23T15:09:28;48.45;;;7.25;;
54865;SDS011;40754;52.094;4.328;2023-02-23T15:11:56;58.38;;;6.95;;
54865;SDS011;40754;52.094;4.328;2023-02-23T15:14:23;48.15;;;6.90;;
54865;SDS011;40754;52.094;4.328;2023-02-23T15:16:48;42.80;;;6.57;;
54865;SDS011;40754;52.094;4.328;2023-02-23T15:19:16;37.42;;;6.55;;
54865;SDS011;40754;52.094;4.328;2023-02-23T15:21:50;41.88;;;6.00;;
54865;SDS011;40754;52.094;4.328;2023-02-23T15:26:48;41.17;;;6.07;;
54865;SDS011;40754;52.094;4.328;2023-02-23T15:29:17;38.55;;;6.25;;
54865;SDS011;40754;52.094;4.328;2023-02-23T15:31:52;43.85;;;6.25;;
54865;SDS011;40754;52.094;4.328;2023-02-23T15:34:26;51.08;;;6.50;;
54865;SDS011;40754;52.094;4.328;2023-02-23T15:40:09;55.72;;;8.05;;
54865;SDS011;40754;52.094;4.328;2023-02-23T15:42:19;48.17;;;7.03;;
54865;SDS011;40754;52.094;4.328;2023-02-23T15:44:57;47.65;;;7.05;;
54865;SDS011;40754;52.094;4.328;2023-02-23T15:50:40;44.30;;;5.85;;
54865;SDS011;40754;52.094;4.328;2023-02-23T15:53:28;40.85;;;8.00;;
54865;SDS011;40754;52.094;4.328;2023-02-23T15:56:03;46.63;;;6.95;;
54865;SDS011;40754;52.094;4.328;2023-02-23T15:58:55;48.25;;;7.63;;
54865;SDS011;40754;52.094;4.328;2023-02-23T16:01:50;51.15;;;7.43;;
54865;SDS011;40754;52.094;4.328;2023-02-23T16:04:28;40.22;;;6.50;;
54865;SDS011;40754;52.094;4.328;2023-02-23T16:09:51;42.00;;;6.55;;
54865;SDS011;40754;52.094;4.328;2023-02-23T16:12:28;53.70;;;7.35;;
54865;SDS011;40754;52.094;4.328;2023-02-23T16:15:24;50.95;;;6.97;;
54865;SDS011;40754;52.094;4.328;2023-02-23T16:17:52;45.70;;;7.65;;
54865;SDS011;40754;52.094;4.328;2023-02-23T16:20:35;41.00;;;6.47;;
54865;SDS011;40754;52.094;4.328;2023-02-23T16:26:51;46.60;;;6.60;;
54865;SDS011;40754;52.094;4.328;2023-02-23T16:29:38;45.88;;;7.38;;
54865;SDS011;40754;52.094;4.328;2023-02-23T16:32:14;44.35;;;6.85;;
54865;SDS011;40754;52.094;4.328;2023-02-23T16:37:23;47.33;;;7.20;;
54865;SDS011;40754;52.094;4.328;2023-02-23T16:39:54;47.35;;;8.20;;
54865;SDS011;40754;52.094;4.328;2023-02-23T16:42:22;51.83;;;6.70;;
54865;SDS011;40754;52.094;4.328;2023-02-23T16:44:51;50.25;;;7.55;;
54865;SDS011;40754;52.094;4.328;2023-02-23T16:50:27;38.78;;;6.47;;
54865;SDS011;40754;52.094;4.328;2023-02-23T16:53:01;39.40;;;5.60;;
54865;SDS011;40754;52.094;4.328;2023-02-23T16:55:33;31.65;;;5.35;;
54865;SDS011;40754;52.094;4.328;2023-02-23T16:58:06;37.88;;;7.00;;
54865;SDS011;40754;52.094;4.328;2023-02-23T17:00:56;30.63;;;5.75;;
54865;SDS011;40754;52.094;4.328;2023-02-23T17:03:28;32.58;;;5.38;;
54865;SDS011;40754;52.094;4.328;2023-02-23T17:05:54;33.47;;;5.50;;
54865;SDS011;40754;52.094;4.328;2023-02-23T17:08:23;24.63;;;4.30;;
54865;SDS011;40754;52.094;4.328;2023-02-23T17:10:51;47.60;;;6.15;;
54865;SDS011;40754;52.094;4.328;2023-02-23T17:13:22;29.58;;;4.72;;
54865;SDS011;40754;52.094;4.328;2023-02-23T17:15:55;28.77;;;4.75;;
54865;SDS011;40754;52.094;4.328;2023-02-23T17:18:25;36.03;;;4.68;;
54865;SDS011;40754;52.094;4.328;2023-02-23T17:20:53;37.53;;;6.50;;
54865;SDS011;40754;52.094;4.328;2023-02-23T17:23:20;39.38;;;5.38;;
54865;SDS011;40754;52.094;4.328;2023-02-23T17:25:51;26.27;;;4.47;;
54865;SDS011;40754;52.094;4.328;2023-02-23T17:28:22;27.27;;;4.20;;
54865;SDS011;40754;52.094;4.328;2023-02-23T17:30:49;23.40;;;3.88;;
54865;SDS011;40754;52.094;4.328;2023-02-23T17:33:15;28.98;;;4.65;;
54865;SDS011;40754;52.094;4.328;2023-02-23T17:36:00;20.50;;;3.90;;
54865;SDS011;40754;52.094;4.328;2023-02-23T17:38:35;25.90;;;4.40;;
54865;SDS011;40754;52.094;4.328;2023-02-23T17:41:14;28.05;;;4.00;;
54865;SDS011;40754;52.094;4.328;2023-02-23T17:43:41;24.17;;;3.13;;